Time;durP1;ratioP1;P1;durP2;ratioP2;P2;SDS_P1;SDS_P2;PMS_P1;PMS_P2;Temp;Humidity;BMP_temperature;BMP_pressure;BME280_temperature;BME280_humidity;BME280_pressure;Samples;Min_cycle;Max_cycle;Signal;HPM_P1;HPM_P2
2021/07/14 04:55:43;;;;;;;;;;;;;;;32.98;46.58;100319.74;1838805;77;20618;-63
2021/07/14 04:58:11;;;;;;;;;;;;;;;33.02;46.57;100327.69;1763032;80;20090;-64
2021/07/14 05:00:37;;;;;;;;;;;;;;;33.22;46.30;100323.38;1792798;78;20967;-63
2021/07/14 05:03:04;;;;;;;47.08;24.75;;;;;;;33.50;45.79;100327.73;1798490;78;20103;-63
2021/07/14 05:05:32;;;;;;;37.63;20.90;;;;;;;33.81;44.70;100325.85;1794849;78;20977;-64
2021/07/14 05:08:01;;;;;;;15.50;9.85;;;;;;;34.05;44.07;100327.01;1800700;78;21507;-63
2021/07/14 05:10:30;;;;;;;10.13;7.45;;;;;;;34.30;42.70;100322.80;1780627;78;21074;-64
2021/07/14 05:12:59;;;;;;;20.10;12.43;;;;;;;34.63;42.07;100333.53;1770310;78;21416;-65
2021/07/14 05:15:34;;;;;;;11.78;8.35;;;;;;;34.80;41.94;100329.06;1784436;78;21069;-66
2021/07/14 05:18:02;;;;;;;7.90;7.08;;;;;;;34.92;41.64;100327.70;1797295;78;20996;-65
2021/07/14 05:20:29;;;;;;;17.60;10.72;;;;;;;35.00;41.35;100328.69;1798203;78;21000;-65
2021/07/14 05:22:57;;;;;;;24.55;14.03;;;;;;;35.07;41.15;100330.73;1825255;78;20952;-65
2021/07/14 05:25:25;;;;;;;9.60;7.70;;;;;;;35.16;40.99;100323.88;1819551;78;21238;-66
2021/07/14 05:27:52;;;;;;;8.20;6.17;;;;;;;35.30;40.75;100326.61;1795285;78;21418;-66
2021/07/14 05:30:19;;;;;;;5.92;5.42;;;;;;;35.55;40.12;100320.88;1820240;78;21000;-68
2021/07/14 05:32:46;;;;;;;6.15;5.33;;;;;;;35.91;39.19;100329.66;1796710;78;21317;-69
2021/07/14 05:35:13;;;;;;;7.35;6.12;;;;;;;36.24;38.09;100321.52;1822583;78;20890;-66
2021/07/14 05:37:41;;;;;;;6.72;5.22;;;;;;;36.49;37.84;100324.34;1805268;78;21123;-66
2021/07/14 05:40:09;;;;;;;6.65;4.95;;;;;;;36.59;37.36;100324.48;1828262;78;21022;-79
2021/07/14 05:42:36;;;;;;;6.35;5.30;;;;;;;36.56;37.63;100327.70;1794542;78;21013;-76
2021/07/14 05:45:04;;;;;;;10.75;5.33;;;;;;;36.67;37.86;100324.89;1792320;79;20942;-64
2021/07/14 05:47:31;;;;;;;8.65;7.10;;;;;;;36.88;37.68;100319.20;1789454;78;20969;-74
2021/07/14 05:49:58;;;;;;;6.28;5.70;;;;;;;37.11;37.33;100320.04;1793051;78;21095;-63
2021/07/14 05:52:25;;;;;;;7.85;5.35;;;;;;;37.29;37.03;100317.00;1791954;80;20919;-70
2021/07/14 05:54:53;;;;;;;6.53;5.58;;;;;;;37.42;36.63;100309.00;1790725;80;20949;-86
2021/07/14 05:57:21;;;;;;;7.40;6.00;;;;;;;37.46;36.46;100308.77;1789959;79;21397;-81
2021/07/14 05:59:48;;;;;;;5.30;4.75;;;;;;;37.48;36.70;100306.62;1794910;78;20982;-68
2021/07/14 06:02:16;;;;;;;5.72;5.22;;;;;;;37.60;36.34;100318.95;1807164;79;21190;-78
2021/07/14 06:04:43;;;;;;;5.85;5.28;;;;;;;37.71;35.65;100314.47;1794660;79;21576;-73
2021/07/14 06:07:10;;;;;;;9.50;5.30;;;;;;;37.80;35.66;100310.20;1798019;79;21010;-74
2021/07/14 06:09:39;;;;;;;5.47;4.97;;;;;;;37.94;34.80;100307.34;1789823;79;20966;-75
2021/07/14 06:12:08;;;;;;;5.28;4.87;;;;;;;38.14;34.38;100308.59;1797405;79;20946;-83
2021/07/14 06:14:35;;;;;;;4.78;4.37;;;;;;;38.36;33.88;100315.57;1780511;79;21552;-70
2021/07/14 06:17:03;;;;;;;7.60;4.95;;;;;;;38.52;33.11;100315.09;1786366;79;20985;-71
2021/07/14 06:19:30;;;;;;;5.47;5.00;;;;;;;38.58;33.02;100311.36;1807041;79;20982;-74
2021/07/14 06:21:58;;;;;;;5.05;4.60;;;;;;;38.71;32.84;100316.88;1800347;79;20918;-69
2021/07/14 06:24:25;;;;;;;5.45;5.00;;;;;;;38.83;32.51;100316.09;1809385;79;20965;-78
2021/07/14 06:26:55;;;;;;;5.30;4.80;;;;;;;38.98;32.35;100314.80;1792299;79;21751;-78
2021/07/14 06:29:22;;;;;;;5.47;5.00;;;;;;;39.06;32.09;100312.14;1792305;79;21497;-77
2021/07/14 06:31:50;;;;;;;6.33;5.28;;;;;;;38.94;32.19;100315.60;1793952;79;20939;-68
2021/07/14 06:34:18;;;;;;;5.75;5.20;;;;;;;38.85;32.53;100318.02;1794752;79;21070;-75
2021/07/14 06:36:45;;;;;;;5.90;5.40;;;;;;;38.92;32.17;100316.41;1791514;79;20950;-69
2021/07/14 06:39:13;;;;;;;6.35;5.30;;;;;;;38.89;32.18;100312.31;1796359;79;22007;-70
2021/07/14 06:41:42;;;;;;;6.53;5.03;;;;;;;38.86;32.14;100312.84;1808803;79;20926;-72
2021/07/14 06:44:10;;;;;;;5.47;4.85;;;;;;;38.92;32.04;100309.60;1754358;79;21500;-75
2021/07/14 06:46:37;;;;;;;7.03;5.70;;;;;;;39.02;31.93;100311.05;1789884;79;21009;-70
2021/07/14 06:49:04;;;;;;;5.35;4.85;;;;;;;39.14;31.55;100317.08;1792967;79;21654;-72
2021/07/14 06:51:31;;;;;;;5.03;4.62;;;;;;;39.26;31.33;100314.09;1786850;79;21130;-73
2021/07/14 06:53:58;;;;;;;6.45;5.47;;;;;;;39.21;30.85;100314.90;1787580;78;20970;-68
2021/07/14 06:56:28;;;;;;;5.70;5.03;;;;;;;38.95;30.64;100311.25;1803734;78;20867;-65
2021/07/14 06:58:57;;;;;;;5.47;5.03;;;;;;;38.75;30.77;100315.27;1798590;79;21569;-65
2021/07/14 07:01:25;;;;;;;5.42;4.75;;;;;;;38.72;30.97;100318.52;1792223;79;20949;-69
2021/07/14 07:03:53;;;;;;;4.72;4.25;;;;;;;38.80;30.10;100317.16;1796316;79;21897;-76
2021/07/14 07:06:23;;;;;;;5.08;4.65;;;;;;;38.83;30.11;100322.08;1792548;79;21056;-67
2021/07/14 07:08:51;;;;;;;5.87;4.25;;;;;;;38.92;30.15;100318.59;1777298;78;20947;-69
2021/07/14 07:11:21;;;;;;;5.35;4.85;;;;;;;39.05;30.06;100321.95;1777074;79;20993;-72
2021/07/14 07:13:51;;;;;;;5.08;4.65;;;;;;;39.16;30.04;100319.00;1780993;79;20950;-74
2021/07/14 07:16:20;;;;;;;6.78;5.00;;;;;;;39.33;29.74;100320.11;1780453;79;21111;-70
2021/07/14 07:18:49;;;;;;;5.30;4.80;;;;;;;39.48;29.43;100322.09;1793855;79;20941;-70
2021/07/14 07:21:16;;;;;;;5.67;5.17;;;;;;;39.55;29.19;100318.56;1786655;79;21492;-64
2021/07/14 07:23:45;;;;;;;5.08;4.67;;;;;;;39.54;29.40;100323.20;1774245;80;20951;-64
2021/07/14 07:26:14;;;;;;;5.47;4.53;;;;;;;39.49;29.58;100317.73;1798552;79;21457;-66
2021/07/14 07:28:42;;;;;;;5.30;4.80;;;;;;;39.54;29.66;100316.39;1789847;78;21128;-64
2021/07/14 07:31:10;;;;;;;6.10;4.87;;;;;;;39.63;29.57;100316.64;1797488;79;20993;-69
2021/07/14 07:33:38;;;;;;;5.72;4.97;;;;;;;39.74;29.69;100313.39;1786536;79;20962;-65
2021/07/14 07:36:06;;;;;;;6.28;5.35;;;;;;;39.80;29.67;100313.67;1788528;78;21017;-70
2021/07/14 07:38:36;;;;;;;5.75;4.90;;;;;;;39.80;29.77;100309.58;1791345;78;21013;-66
2021/07/14 07:41:05;;;;;;;5.37;4.92;;;;;;;39.83;29.88;100306.31;1801447;79;21078;-66
2021/07/14 07:43:34;;;;;;;9.70;6.15;;;;;;;39.90;29.97;100304.98;1795129;79;21417;-75
2021/07/14 07:46:01;;;;;;;8.48;6.10;;;;;;;39.94;29.84;100305.25;1790485;79;21029;-81
2021/07/14 07:48:28;;;;;;;6.33;5.72;;;;;;;39.88;29.70;100310.41;1781492;79;21014;-68
2021/07/14 07:50:57;;;;;;;7.17;6.45;;;;;;;39.62;29.68;100309.55;1784387;79;20990;-65
2021/07/14 07:53:26;;;;;;;8.73;7.17;;;;;;;39.02;30.56;100309.68;1787228;79;21036;-63
2021/07/14 07:55:53;;;;;;;8.25;7.00;;;;;;;38.75;31.12;100312.55;1778219;79;21568;-68
2021/07/14 07:58:21;;;;;;;8.65;6.12;;;;;;;38.57;31.16;100312.95;1790732;79;20923;-66
2021/07/14 08:00:48;;;;;;;5.87;5.33;;;;;;;38.42;31.45;100306.05;1788971;79;20993;-66
2021/07/14 08:03:17;;;;;;;6.50;5.95;;;;;;;38.51;31.44;100300.39;1793518;79;20862;-66
2021/07/14 08:05:44;;;;;;;5.83;5.33;;;;;;;38.40;31.67;100302.77;1791570;79;21106;-67
2021/07/14 08:08:11;;;;;;;7.50;5.45;;;;;;;38.07;32.09;100301.98;1800897;78;21365;-78
2021/07/14 08:10:40;;;;;;;7.30;5.83;;;;;;;37.68;32.90;100299.50;1817441;79;21048;-71
2021/07/14 08:13:08;;;;;;;5.40;5.00;;;;;;;37.52;33.63;100299.59;1806341;79;20974;-74
2021/07/14 08:15:37;;;;;;;6.78;5.80;;;;;;;37.64;33.53;100300.23;1798525;78;21578;-62
2021/07/14 08:18:06;;;;;;;5.75;5.10;;;;;;;37.75;33.26;100297.92;1794265;79;20890;-65
2021/07/14 08:20:35;;;;;;;6.20;5.70;;;;;;;37.82;33.18;100297.72;1784355;79;21566;-73
2021/07/14 08:23:03;;;;;;;9.00;5.58;;;;;;;37.96;33.62;100303.01;1794019;79;20887;-66
2021/07/14 08:25:31;;;;;;;5.75;5.22;;;;;;;38.12;33.25;100299.34;1793874;78;20992;-68
2021/07/14 08:27:58;;;;;;;6.03;5.15;;;;;;;38.20;33.18;100300.75;1799697;78;21024;-67
2021/07/14 08:30:26;;;;;;;5.72;5.22;;;;;;;38.29;32.81;100301.91;1787515;78;21084;-67
2021/07/14 08:32:54;;;;;;;5.47;4.90;;;;;;;38.40;32.83;100300.05;1789214;79;21073;-74
2021/07/14 08:35:21;;;;;;;5.15;4.65;;;;;;;38.62;32.48;100301.58;1793326;79;21461;-71
2021/07/14 08:37:49;;;;;;;5.83;5.28;;;;;;;38.76;31.96;100292.41;1801308;79;21053;-67
2021/07/14 08:40:18;;;;;;;6.70;4.87;;;;;;;38.80;31.83;100285.31;1741117;81;20895;-67
2021/07/14 08:42:47;;;;;;;5.67;5.10;;;;;;;38.82;31.38;100289.95;1747438;81;21128;-64
2021/07/14 08:45:18;;;;;;;6.22;5.67;;;;;;;38.84;30.94;100287.78;1744326;81;21446;-71
2021/07/14 08:47:45;;;;;;;16.45;8.75;;;;;;;38.85;31.02;100291.33;1750120;81;20931;-67
2021/07/14 08:50:15;;;;;;;9.53;6.42;;;;;;;38.86;29.97;100289.70;1733918;82;20908;-77
2021/07/14 08:52:47;;;;;;;6.65;5.17;;;;;;;38.86;30.25;100286.98;1745151;81;21033;-70
2021/07/14 08:55:19;;;;;;;7.33;5.10;;;;;;;38.85;30.83;100285.88;1757526;80;21074;-78
2021/07/14 08:57:50;;;;;;;5.10;4.70;;;;;;;38.83;31.14;100289.41;1740774;80;20961;-78
2021/07/14 09:00:23;;;;;;;10.93;4.90;;;;;;;38.81;29.44;100286.95;1725043;81;20944;-71
2021/07/14 09:02:50;;;;;;;5.70;5.10;;;;;;;38.78;29.15;100288.88;1715585;82;20945;-70
2021/07/14 09:05:17;;;;;;;15.98;9.55;;;;;;;38.61;29.29;100289.60;1727807;81;20990;-65
2021/07/14 09:07:44;;;;;;;8.70;6.30;;;;;;;38.40;29.92;100287.80;1743494;81;21198;-82
2021/07/14 09:10:14;;;;;;;9.03;7.10;;;;;;;38.28;30.29;100290.21;1746648;81;20979;-76
2021/07/14 09:12:45;;;;;;;6.00;5.50;;;;;;;37.98;30.45;100288.08;1729101;81;20948;-74
2021/07/14 09:15:15;;;;;;;7.45;5.60;;;;;;;37.53;31.26;100285.75;1688444;83;21025;-78
2021/07/14 09:17:46;;;;;;;7.37;5.37;;;;;;;37.34;31.52;100282.56;1699571;82;20882;-68
2021/07/14 09:20:22;;;;;;;5.47;4.97;;;;;;;37.14;32.01;100285.05;1703263;82;21115;-67
2021/07/14 09:23:17;;;;;;;6.45;5.00;;;;;;;36.90;31.94;100280.95;1729330;83;20971;-74
2021/07/14 09:26:04;;;;;;;5.93;5.10;;;;;;;36.71;32.49;100282.61;1729120;83;21037;-67
2021/07/14 09:28:34;;;;;;;5.40;4.90;;;;;;;36.46;33.11;100284.14;1726195;83;21035;-69
2021/07/14 09:31:13;;;;;;;5.70;5.20;;;;;;;36.02;34.14;100291.60;1740282;82;21049;-68
2021/07/14 09:33:37;;;;;;;;;;;;;;;35.66;34.29;100291.52;1772082;79;21140;-71
2021/07/14 09:36:05;;;;;;;;;;;;;;;35.39;34.51;100285.91;1803226;78;20141;-71
2021/07/14 09:38:33;;;;;;;;;;;;;;;35.30;34.99;100285.99;1800305;79;20148;-69
2021/07/14 09:41:04;;;;;;;;;;;;;;;35.18;35.15;100279.80;1788853;79;20218;-69
2021/07/14 09:43:34;;;;;;;;;;;;;;;34.87;35.74;100281.05;1781061;79;20102;-66
2021/07/14 09:46:06;;;;;;;;;;;;;;;34.60;36.16;100278.56;1784085;79;21121;-68
2021/07/14 09:48:38;;;;;;;;;;;;;;;34.44;36.77;100280.09;1753971;81;20100;-68
2021/07/14 09:51:12;;;;;;;;;;;;;;;34.41;36.99;100276.51;1754059;82;20068;-70
2021/07/14 09:53:42;;;;;;;;;;;;;;;34.48;36.55;100276.39;1768579;79;20095;-67
2021/07/14 09:56:25;;;;;;;;;;;;;;;34.64;36.14;100275.67;1762017;80;20100;-65
2021/07/14 09:59:11;;;;;;;;;;;;;;;34.82;35.82;100272.83;1763916;81;21075;-66
2021/07/14 10:01:49;;;;;;;;;;;;;;;34.92;36.24;100276.28;1785401;79;20168;-66
2021/07/14 10:04:26;;;;;;;;;;;;;;;34.81;36.56;100274.42;1793811;80;20191;-64
2021/07/14 10:07:07;;;;;;;;;;;;;;;34.73;36.96;100279.66;1794729;79;20452;-65
2021/07/14 10:09:34;;;;;;;;;;;;;;;34.66;37.29;100273.03;1794364;80;20550;-64
2021/07/14 10:12:27;;;;;;;;;;;;;;;34.60;37.48;100278.03;1794619;80;20588;-64
2021/07/14 10:14:55;;;;;;;;;;;;;;;34.54;37.72;100272.74;1795104;80;20122;-62
2021/07/14 10:17:48;;;;;;;;;;;;;;;34.59;37.41;100275.56;1794794;80;20129;-65
2021/07/14 10:20:34;;;;;;;;;;;;;;;34.64;37.11;100274.32;1794756;79;20122;-64
2021/07/14 10:23:03;;;;;;;;;;;;;;;34.67;36.94;100276.55;1795382;79;20137;-64
2021/07/14 10:25:32;;;;;;;;;;;;;;;34.63;36.57;100280.27;1789384;80;20078;-64
2021/07/14 10:28:01;;;;;;;;;;;;;;;34.54;36.40;100270.86;1795871;80;20090;-64
2021/07/14 10:30:28;;;;;;;;;;;;;;;34.47;36.83;100270.69;1794682;80;20081;-64
2021/07/14 10:32:55;;;;;;;;;;;;;;;34.39;36.88;100269.98;1766936;80;20203;-67
2021/07/14 10:35:23;;;;;;;;;;;;;;;34.29;37.10;100271.10;1793505;80;20149;-67
2021/07/14 10:37:54;;;;;;;;;;;;;;;34.22;37.20;100267.69;1765679;80;21856;-65
2021/07/14 10:40:23;;;;;;;;;;;;;;;34.09;37.42;100263.33;1727778;83;20146;-64
2021/07/14 10:42:51;;;;;;;;;;;;;;;34.01;37.52;100261.49;1711314;83;20152;-65
2021/07/14 10:45:19;;;;;;;;;;;;;;;33.91;38.27;100259.92;1711921;83;20109;-65
2021/07/14 10:47:48;;;;;;;;;;;;;;;33.79;38.80;100265.30;1712984;82;20138;-65
2021/07/14 10:50:18;;;;;;;;;;;;;;;33.61;38.84;100260.76;1727908;82;20167;-65
2021/07/14 10:52:46;;;;;;;;;;;;;;;33.43;38.78;100255.44;1741907;82;20087;-64
2021/07/14 10:55:19;;;;;;;;;;;;;;;33.27;38.89;100252.86;1740740;82;20177;-64
2021/07/14 10:57:46;;;;;;;;;;;;;;;33.12;39.22;100256.48;1732502;82;20095;-64
2021/07/14 11:00:15;;;;;;;;;;;;;;;33.00;39.03;100263.16;1730722;82;20486;-64
2021/07/14 11:02:50;;;;;;;;;;;;;;;32.93;39.11;100256.20;1715909;82;21119;-65
2021/07/14 11:05:36;;;;;;;;;;;;;;;32.93;38.88;100253.50;1721079;82;20147;-66
2021/07/14 11:08:06;;;;;;;;;;;;;;;32.99;38.57;100255.30;1667334;85;20142;-69
2021/07/14 11:10:38;;;;;;;;;;;;;;;33.00;38.91;100252.89;1757304;79;20136;-64
2021/07/14 11:13:28;;;;;;;;;;;;;;;32.96;38.94;100252.52;1775721;79;20434;-70
2021/07/14 11:15:57;;;;;;;;;;;;;;;32.94;38.91;100248.41;1774566;79;20961;-63
2021/07/14 11:18:34;;;;;;;;;;;;;;;32.99;39.65;100251.25;1790923;79;20508;-65
2021/07/14 11:21:02;;;;;;;;;;;;;;;33.05;39.58;100255.73;1795050;79;20456;-66
2021/07/14 11:23:31;;;;;;;;;;;;;;;33.04;39.32;100251.39;1780959;79;20106;-62
2021/07/14 11:25:59;;;;;;;;;;;;;;;32.96;39.32;100245.78;1794197;79;20182;-64
2021/07/14 11:28:27;;;;;;;;;;;;;;;32.89;39.36;100243.69;1793635;79;21963;-71
2021/07/14 11:31:01;;;;;;;;;;;;;;;32.84;39.59;100238.14;1790440;79;20122;-69
2021/07/14 11:33:31;;;;;;;;;;;;;;;32.79;39.53;100246.12;1800603;79;20456;-68
2021/07/14 11:36:03;;;;;;;;;;;;;;;32.75;39.63;100240.34;1795146;79;20172;-64
2021/07/14 11:38:32;;;;;;;;;;;;;;;32.77;39.80;100237.42;1784891;78;20082;-66
2021/07/14 11:41:01;;;;;;;;;;;;;;;32.78;39.85;100240.42;1776852;79;21123;-72
2021/07/14 11:43:30;;;;;;;;;;;;;;;32.78;39.65;100236.38;1792725;78;20119;-74
2021/07/14 11:46:06;;;;;;;;;;;;;;;32.79;39.53;100242.86;1795835;78;20472;-73
2021/07/14 11:48:33;;;;;;;;;;;;;;;32.85;39.94;100235.74;1776219;78;20115;-65
2021/07/14 11:51:08;;;;;;;;;;;;;;;32.93;39.64;100236.79;1797208;79;20078;-70
2021/07/14 11:53:45;;;;;;;;;;;;;;;32.99;39.25;100230.48;1792746;79;21113;-67
2021/07/14 11:56:21;;;;;;;;;;;;;;;33.06;38.39;100232.58;1798379;79;20192;-70
2021/07/14 11:58:51;;;;;;;;;;;;;;;33.04;38.40;100231.16;1791755;78;20118;-68
2021/07/14 12:01:26;;;;;;;;;;;;;;;33.02;38.30;100231.91;1783494;78;20208;-67
2021/07/14 12:04:06;;;;;;;;;;;;;;;33.04;38.54;100237.37;1794557;78;20133;-65
2021/07/14 12:07:06;;;;;;;;;;;;;;;33.13;38.70;100239.23;1799417;79;21015;-69
2021/07/14 12:09:37;;;;;;;;;;;;;;;33.24;38.10;100230.86;1787303;78;20416;-67
2021/07/14 12:12:19;;;;;;;;;;;;;;;33.32;38.26;100228.70;1783344;79;20190;-70
2021/07/14 12:14:49;;;;;;;;;;;;;;;33.38;38.73;100232.36;1791565;79;20126;-69
2021/07/14 12:17:25;;;;;;;;;;;;;;;33.42;38.07;100233.02;1794219;79;20121;-62
2021/07/14 12:19:57;;;;;;;;;;;;;;;33.41;37.54;100229.20;1780173;79;21079;-69
2021/07/14 12:22:27;;;;;;;;;;;;;;;33.39;37.97;100232.13;1782071;79;20130;-69
2021/07/14 12:24:56;;;;;;;;;;;;;;;33.44;38.47;100229.56;1785422;79;20437;-69
2021/07/14 12:27:29;;;;;;;;;;;;;;;33.49;39.02;100240.20;1785371;79;20329;-62
2021/07/14 12:29:59;;;;;;;;;;;;;;;33.55;38.25;100239.28;1777388;79;20621;-72
2021/07/14 12:32:44;;;;;;;;;;;;;;;33.56;37.80;100231.48;1780266;79;21141;-77
2021/07/14 12:35:15;;;;;;;;;;;;;;;33.55;37.92;100224.43;1786887;78;20090;-74
2021/07/14 12:37:45;;;;;;;;;;;;;;;33.52;38.17;100223.55;1781503;79;20110;-74
2021/07/14 12:40:21;;;;;;;;;;;;;;;33.46;38.48;100231.52;1782674;79;21234;-70
2021/07/14 12:42:48;;;;;;;;;;;;;;;33.36;38.60;100221.79;1786553;78;20119;-71
2021/07/14 12:45:27;;;;;;;;;;;;;;;33.28;38.28;100223.98;1779099;78;22367;-74
2021/07/14 12:48:01;;;;;;;;;;;;;;;33.16;38.25;100225.29;1778689;78;20143;-66
2021/07/14 12:50:27;;;;;;;;;;;;;;;33.02;37.93;100218.42;1770681;78;20201;-70
2021/07/14 12:52:57;;;;;;;;;;;;;;;32.94;38.32;100212.80;1799359;78;20181;-66
2021/07/14 12:55:24;;;;;;;;;;;;;;;32.87;38.66;100217.46;1794738;78;20482;-70
2021/07/14 12:57:51;;;;;;;;;;;;;;;32.75;38.83;100211.20;1802489;78;21044;-63
2021/07/14 13:00:18;;;;;;;;;;;;;;;32.71;38.63;100216.72;1812884;78;20135;-65
2021/07/14 13:02:58;;;;;;;;;;;;;;;32.68;38.53;100211.78;1804932;78;20119;-66
2021/07/14 13:05:25;;;;;;;;;;;;;;;32.69;38.98;100210.73;1812433;78;20226;-61
2021/07/14 13:07:53;;;;;;;;;;;;;;;32.69;39.51;100205.34;1806695;78;20142;-67
2021/07/14 13:10:23;;;;;;;;;;;;;;;32.71;38.70;100198.66;1804747;78;21799;-70
2021/07/14 13:12:55;;;;;;;;;;;;;;;32.74;38.21;100202.78;1795296;78;20398;-70
2021/07/14 13:15:23;;;;;;;;;;;;;;;32.78;37.85;100200.79;1803365;78;20209;-69
2021/07/14 13:18:09;;;;;;;;;;;;;;;32.82;37.76;100201.12;1803875;78;20071;-69
2021/07/14 13:20:41;;;;;;;;;;;;;;;32.86;36.71;100196.11;1807774;78;20289;-63
2021/07/14 13:23:11;;;;;;;;;;;;;;;32.90;36.47;100195.95;1754174;81;20413;-76
2021/07/14 13:25:48;;;;;;;;;;;;;;;32.91;36.03;100186.28;1758287;81;20484;-71
2021/07/14 13:28:23;;;;;;;;;;;;;;;32.91;36.62;100193.03;1750145;81;20164;-69
2021/07/14 13:30:59;;;;;;;;;;;;;;;32.91;36.85;100194.38;1757598;81;20091;-68
2021/07/14 13:33:33;;;;;;;;;;;;;;;32.91;36.88;100186.81;1752918;81;20400;-72
2021/07/14 13:36:01;;;;;;;;;;;;;;;32.91;37.00;100190.86;1751968;81;21064;-71
2021/07/14 13:38:49;;;;;;;;;;;;;;;32.94;37.47;100189.05;1756528;81;20103;-66
2021/07/14 13:41:18;;;;;;;;;;;;;;;32.94;36.91;100188.53;1760314;81;20114;-65
2021/07/14 13:43:47;;;;;;;;;;;;;;;32.88;37.02;100188.09;1748334;80;21320;-68
2021/07/14 13:46:32;;;;;;;;;;;;;;;32.84;36.84;100186.89;1756073;81;20104;-66
2021/07/14 13:49:14;;;;;;;;;;;;;;;32.80;37.10;100191.92;1750949;81;21134;-65
2021/07/14 13:51:45;;;;;;;;;;;;;;;32.80;37.55;100183.00;1750840;81;20090;-66
2021/07/14 13:54:28;;;;;;;;;;;;;;;32.80;37.91;100183.83;1740035;82;20071;-68
2021/07/14 13:57:01;;;;;;;;;;;;;;;32.79;37.70;100178.69;1748055;81;20401;-78
2021/07/14 13:59:31;;;;;;;;;;;;;;;32.83;37.73;100185.25;1741352;82;20099;-69
2021/07/14 14:02:01;;;;;;;;;;;;;;;32.85;37.44;100183.67;1739606;81;21187;-66
2021/07/14 14:04:29;;;;;;;;;;;;;;;32.84;37.52;100180.15;1741156;82;20130;-62
2021/07/14 14:06:57;;;;;;;;;;;;;;;32.83;37.03;100182.55;1744482;82;20142;-63
2021/07/14 14:09:27;;;;;;;;;;;;;;;32.76;37.21;100179.14;1744608;82;20087;-59
2021/07/14 14:11:54;;;;;;;;;;;;;;;32.71;37.21;100176.27;1745260;81;20119;-64
2021/07/14 14:14:21;;;;;;;;;;;;;;;32.69;38.03;100177.02;1744329;81;21125;-67
2021/07/14 14:16:50;;;;;;;;;;;;;;;32.69;37.65;100170.28;1705509;81;20222;-68
2021/07/14 14:19:17;;;;;;;;;;;;;;;32.69;37.76;100164.89;1746424;81;20134;-64
2021/07/14 14:21:52;;;;;;;;;;;;;;;32.69;37.73;100166.23;1744791;81;20142;-67
2021/07/14 14:24:19;;;;;;;;;;;;;;;32.66;37.74;100168.03;1753220;81;20144;-66
2021/07/14 14:26:51;;;;;;;;;;;;;;;32.63;37.84;100165.79;1762690;81;20199;-64
2021/07/14 14:29:18;;;;;;;;;;;;;;;32.60;38.06;100163.02;1762696;81;20168;-65
2021/07/14 14:31:47;;;;;;;;;;;;;;;32.56;37.44;100161.00;1762758;81;20116;-66
2021/07/14 14:34:14;;;;;;;;;;;;;;;32.51;37.66;100162.20;1763301;81;20145;-70
2021/07/14 14:36:43;;;;;;;;;;;;;;;32.46;37.65;100156.95;1763272;81;20136;-68
2021/07/14 14:39:10;;;;;;;;;;;;;;;32.44;38.16;100160.92;1763009;81;21126;-69
2021/07/14 14:41:38;;;;;;;;;;;;;;;32.42;38.46;100158.98;1763200;81;20144;-65
2021/07/14 14:44:06;;;;;;;;;;;;;;;32.42;38.14;100161.67;1762797;81;20557;-68
2021/07/14 14:46:33;;;;;;;;;;;;;;;32.39;38.32;100160.25;1763255;81;20121;-68
2021/07/14 14:49:00;;;;;;;;;;;;;;;32.38;38.80;100159.98;1763538;81;20141;-70
2021/07/14 14:51:27;;;;;;;;;;;;;;;32.38;39.14;100157.81;1763452;81;20613;-68
2021/07/14 14:53:54;;;;;;;;;;;;;;;32.37;39.07;100157.52;1765507;81;20133;-64
2021/07/14 14:56:21;;;;;;;;;;;;;;;32.38;38.31;100156.47;1765313;81;20116;-65
2021/07/14 14:58:49;;;;;;;;;;;;;;;32.35;38.57;100159.09;1734174;83;20116;-70
2021/07/14 15:01:16;;;;;;;;;;;;;;;32.32;38.01;100157.36;1733204;83;20100;-71
2021/07/14 15:03:43;;;;;;;;;;;;;;;32.27;38.29;100153.16;1733132;83;21142;-71
2021/07/14 15:06:10;;;;;;;;;;;;;;;32.20;37.84;100154.55;1733142;83;20097;-70
2021/07/14 15:08:38;;;;;;;;;;;;;;;32.15;38.03;100152.52;1733076;83;20140;-64
2021/07/14 15:11:04;;;;;;;;;;;;;;;32.11;38.11;100148.63;1733036;83;20415;-64
2021/07/14 15:13:31;;;;;;;;;;;;;;;32.09;37.96;100157.98;1706020;83;20093;-70
2021/07/14 15:15:59;;;;;;;;;;;;;;;32.06;38.30;100159.25;1733209;83;21202;-69
2021/07/14 15:18:31;;;;;;;;;;;;;;;32.05;38.37;100162.16;1719151;83;20097;-67
2021/07/14 15:20:56;;;;;;;;;;;;;;;32.00;38.22;100165.52;1703015;83;20118;-69
2021/07/14 15:23:23;;;;;;;;;;;;;;;31.98;38.13;100162.78;1703082;84;20411;-71
2021/07/14 15:28:39;;;;;;;;;;;;;;;31.93;38.69;100151.33;1702900;84;21773;-70
2021/07/14 15:31:10;;;;;;;;;;;;;;;31.92;38.63;100146.16;1702847;84;20136;-70
2021/07/14 15:33:37;;;;;;;;;;;;;;;31.90;38.06;100149.07;1702743;83;20560;-71
2021/07/14 15:36:04;;;;;;;;;;;;;;;31.87;38.14;100147.34;1702916;84;20126;-69
2021/07/14 15:38:33;;;;;;;;;;;;;;;31.82;38.25;100146.14;1702784;84;20125;-65
2021/07/14 15:41:01;;;;;;;;;;;;;;;31.80;38.77;100149.58;1702674;84;21552;-66
2021/07/14 15:43:27;;;;;;;;;;;;;;;31.79;38.91;100143.89;1701592;84;20499;-70
2021/07/14 15:45:54;;;;;;;;;;;;;;;31.75;38.97;100138.64;1702745;82;20102;-70
2021/07/14 15:48:21;;;;;;;;;;;;;;;31.72;38.79;100139.60;1702906;84;20101;-70
2021/07/14 15:50:49;;;;;;;;;;;;;;;31.69;38.81;100142.21;1703043;84;20097;-70
2021/07/14 15:53:16;;;;;;;;;;;;;;;31.65;39.07;100142.84;1702944;84;21138;-70
2021/07/14 15:55:43;;;;;;;;;;;;;;;31.62;39.06;100141.41;1703069;84;20093;-71
2021/07/14 15:58:10;;;;;;;;;;;;;;;31.59;39.09;100138.37;1728179;82;20185;-66
2021/07/14 16:00:36;;;;;;;;;;;;;;;31.55;39.18;100137.16;1745055;82;20401;-66
2021/07/14 16:03:03;;;;;;;;;;;;;;;31.51;39.51;100142.16;1744621;82;20083;-62
2021/07/14 16:05:32;;;;;;;;;;;;;;;31.46;39.95;100131.22;1744677;82;20095;-63
2021/07/14 16:07:59;;;;;;;;;;;;;;;31.41;40.29;100137.25;1744575;82;20421;-62
2021/07/14 16:10:28;;;;;;;;;;;;;;;31.38;40.61;100135.52;1744639;82;20142;-62
2021/07/14 16:12:56;;;;;;;;;;;;;;;31.33;41.10;100140.21;1744603;82;20100;-62
2021/07/14 16:15:25;;;;;;;;;;;;;;;31.28;41.04;100139.21;1744629;82;20151;-62
2021/07/14 16:17:54;;;;;;;;;;;;;;;31.22;41.44;100140.91;1744641;82;20396;-61
2021/07/14 16:20:22;;;;;;;;;;;;;;;31.14;41.90;100139.33;1744445;82;20083;-62
2021/07/14 16:22:52;;;;;;;;;;;;;;;31.10;41.92;100131.87;1744610;82;20083;-61
2021/07/14 16:25:21;;;;;;;;;;;;;;;31.07;42.48;100132.31;1744544;82;20100;-61
2021/07/14 16:27:47;;;;;;;;;;;;;;;31.03;42.76;100137.81;1744787;82;20535;-61
2021/07/14 16:30:15;;;;;;;;;;;;;;;30.99;43.07;100140.11;1744538;82;21177;-62
2021/07/14 16:32:42;;;;;;;;;;;;;;;30.97;43.23;100140.02;1744493;82;20095;-65
2021/07/14 16:35:09;;;;;;;;;;;;;;;30.93;43.33;100134.77;1744716;82;20356;-66
2021/07/14 16:37:36;;;;;;;;;;;;;;;30.89;43.50;100144.30;1744587;81;20087;-66
2021/07/14 16:40:07;;;;;;;;;;;;;;;30.82;43.77;100138.44;1744567;82;20099;-65
2021/07/14 16:42:34;;;;;;;;;;;;;;;30.75;43.91;100134.98;1744667;82;21791;-66
2021/07/14 16:45:01;;;;;;;;;;;;;;;30.67;44.32;100133.06;1744584;82;20095;-65
2021/07/14 16:47:28;;;;;;;;;;;;;;;30.62;44.55;100136.91;1744655;82;20142;-65
2021/07/14 16:49:56;;;;;;;;;;;;;;;30.57;44.98;100146.13;1744473;82;20398;-65
2021/07/14 16:52:23;;;;;;;;;;;;;;;30.52;45.23;100139.50;1745048;82;20436;-65
2021/07/14 16:54:51;;;;;;;;;;;;;;;30.48;45.37;100138.27;1744644;82;21174;-65
2021/07/14 16:57:17;;;;;;;;;;;;;;;30.42;45.56;100132.92;1744451;82;20158;-65
2021/07/14 16:59:45;;;;;;;;;;;;;;;30.36;45.73;100131.94;1744754;82;20393;-65
2021/07/14 17:02:12;;;;;;;;;;;;;;;30.31;45.88;100130.91;1744597;82;20092;-66
2021/07/14 17:04:39;;;;;;;;;;;;;;;30.24;46.15;100128.77;1748772;81;20091;-65
2021/07/14 17:07:07;;;;;;;;;;;;;;;30.16;46.39;100125.27;1751277;81;20146;-65
2021/07/14 17:09:34;;;;;;;;;;;;;;;30.12;46.60;100118.67;1752950;81;20095;-65
2021/07/14 17:12:03;;;;;;;;;;;;;;;30.08;46.88;100113.41;1752654;81;20153;-66
2021/07/14 17:14:30;;;;;;;;;;;;;;;30.01;47.17;100121.99;1754176;81;20153;-65
2021/07/14 17:16:57;;;;;;;;;;;;;;;29.97;47.16;100121.28;1748542;81;20110;-64
2021/07/14 17:19:24;;;;;;;;;;;;;;;29.91;47.24;100117.56;1752980;81;21107;-66